createdAt,value
2022-12-01T00:04:23.262Z,26.17
2022-12-01T00:09:41.344Z,23.95
2022-12-01T00:14:44.079Z,22.50
2022-12-01T00:19:47.258Z,20.58
2022-12-01T00:24:52.392Z,21.52
2022-12-01T00:29:55.145Z,21.95
2022-12-01T00:34:57.966Z,21.42
2022-12-01T00:40:02.395Z,21.30
2022-12-01T00:45:06.135Z,21.73
2022-12-01T00:50:09.666Z,21.52
2022-12-01T00:55:13.795Z,21.90
2022-12-01T01:00:18.177Z,25.50
2022-12-01T01:05:20.991Z,24.90
2022-12-01T01:10:25.164Z,27.88
2022-12-01T01:15:28.213Z,26.08
2022-12-01T01:20:31.018Z,27.55
2022-12-01T01:25:35.312Z,29.55
2022-12-01T01:30:40.380Z,29.20
2022-12-01T01:35:43.198Z,30.02
2022-12-01T01:40:48.407Z,31.35
2022-12-01T01:45:51.408Z,31.15
2022-12-01T01:50:54.271Z,31.33
2022-12-01T01:55:58.811Z,34.50
2022-12-01T02:01:01.755Z,31.38
2022-12-01T02:06:05.916Z,32.92
2022-12-01T02:11:34.464Z,33.22
2022-12-01T02:16:45.442Z,30.33
2022-12-01T02:22:04.107Z,34.30
2022-12-01T02:27:15.031Z,35.78
2022-12-01T02:32:30.470Z,35.95
2022-12-01T02:37:41.915Z,35.58
2022-12-01T02:42:54.186Z,33.15
2022-12-01T02:48:02.947Z,34.70
2022-12-01T02:53:09.124Z,32.63
2022-12-01T02:58:15.455Z,31.92
2022-12-01T03:03:35.932Z,30.00
2022-12-01T03:08:49.104Z,34.00
2022-12-01T03:14:06.567Z,32.22
2022-12-01T03:19:15.485Z,31.30
2022-12-01T03:24:20.516Z,29.95
2022-12-01T03:29:27.828Z,30.92
2022-12-01T03:34:37.885Z,31.73
2022-12-01T03:39:43.936Z,29.33
2022-12-01T03:44:50.011Z,30.25
2022-12-01T03:49:55.665Z,31.30
2022-12-01T03:55:09.110Z,34.78
2022-12-01T04:00:14.528Z,34.35
2022-12-01T04:05:23.857Z,34.53
2022-12-01T04:10:28.455Z,35.83
2022-12-01T04:15:31.251Z,40.08
2022-12-01T04:20:35.475Z,46.97
2022-12-01T04:25:38.313Z,47.47
2022-12-01T04:30:41.048Z,44.67
2022-12-01T04:35:45.195Z,47.70
2022-12-01T04:40:48.044Z,48.97
2022-12-01T04:45:50.947Z,51.75
2022-12-01T04:50:55.042Z,50.65
2022-12-01T04:55:57.874Z,54.65
2022-12-01T05:01:03.057Z,51.60
2022-12-01T05:06:09.384Z,52.90
2022-12-01T05:11:13.499Z,51.45
2022-12-01T05:16:19.133Z,51.35
2022-12-01T05:21:23.345Z,51.60
2022-12-01T05:26:26.198Z,50.83
2022-12-01T05:31:29.114Z,49.83
2022-12-01T05:36:33.742Z,53.00
2022-12-01T05:41:36.515Z,50.30
2022-12-01T05:46:39.291Z,49.03
2022-12-01T05:51:43.589Z,53.13
2022-12-01T05:56:46.409Z,49.65
2022-12-01T06:01:49.214Z,50.63
2022-12-01T06:06:53.432Z,50.80
2022-12-01T06:11:56.225Z,53.05
2022-12-01T06:16:59.002Z,50.65
2022-12-01T06:22:03.545Z,50.90
2022-12-01T06:27:06.447Z,48.85
2022-12-01T06:32:09.293Z,50.53
2022-12-01T06:37:15.468Z,50.20
2022-12-01T06:42:18.255Z,48.50
2022-12-01T06:47:21.070Z,50.92
2022-12-01T06:52:25.185Z,49.97
2022-12-01T06:57:28.064Z,49.10
2022-12-01T07:02:31.153Z,47.60
2022-12-01T07:07:38.269Z,47.15
2022-12-01T07:12:41.419Z,46.80
2022-12-01T07:17:44.170Z,48.25
2022-12-01T07:22:48.269Z,49.58
2022-12-01T07:27:51.074Z,26.88
2022-12-01T07:32:53.941Z,51.65
2022-12-01T07:37:58.085Z,38.83
2022-12-01T07:43:00.896Z,37.85
2022-12-01T07:48:03.773Z,39.17
2022-12-01T07:53:07.910Z,41.25
2022-12-01T07:58:10.703Z,41.95
2022-12-01T08:03:14.318Z,45.05
2022-12-01T08:08:18.777Z,45.05
2022-12-01T08:13:24.038Z,44.72
2022-12-01T08:18:26.835Z,46.75
2022-12-01T08:23:31.023Z,46.03
2022-12-01T08:28:36.534Z,49.47
2022-12-01T08:33:39.494Z,48.63
2022-12-01T08:38:45.875Z,48.95
2022-12-01T08:44:03.986Z,45.72
2022-12-01T08:49:07.569Z,45.30
2022-12-01T08:54:12.909Z,47.63
2022-12-01T08:59:15.743Z,45.35
2022-12-01T09:04:19.077Z,45.85
2022-12-01T09:09:27.181Z,45.50
2022-12-01T09:14:30.106Z,45.83
2022-12-01T09:19:33.270Z,42.40
2022-12-01T09:24:37.583Z,40.38
2022-12-01T09:29:40.320Z,40.78
2022-12-01T09:34:43.142Z,41.30
2022-12-01T09:39:47.459Z,38.05
2022-12-01T09:44:53.840Z,37.65
2022-12-01T09:50:00.619Z,39.13
2022-12-01T09:55:08.032Z,34.78
2022-12-01T10:00:15.820Z,38.47
2022-12-01T10:05:22.024Z,34.47
2022-12-01T10:10:29.976Z,39.63
2022-12-01T10:15:47.235Z,35.25
2022-12-01T10:20:57.847Z,34.00
2022-12-01T10:26:14.056Z,34.63
2022-12-01T10:31:21.383Z,34.08
2022-12-01T10:36:27.402Z,34.75
2022-12-01T10:41:35.376Z,35.28
2022-12-01T10:46:44.532Z,34.92
2022-12-01T10:51:55.570Z,34.25
2022-12-01T10:57:00.506Z,36.83
2022-12-01T11:02:05.235Z,34.33
2022-12-01T11:07:08.332Z,34.83
2022-12-01T11:12:16.535Z,32.55
2022-12-01T11:17:33.434Z,35.03
2022-12-01T11:22:36.404Z,33.70
2022-12-01T11:27:51.623Z,32.75
2022-12-01T11:32:57.117Z,34.22
2022-12-01T11:43:31.327Z,32.15
2022-12-01T11:48:36.244Z,32.60
2022-12-01T11:53:41.047Z,32.35
2022-12-01T11:58:47.579Z,33.75
2022-12-01T12:03:59.558Z,33.85
2022-12-01T12:09:17.002Z,34.60
2022-12-01T12:14:42.779Z,33.75
2022-12-01T12:20:08.131Z,33.25
2022-12-01T12:25:26.232Z,32.20
2022-12-01T12:30:32.949Z,31.08
2022-12-01T12:35:42.603Z,32.08
2022-12-01T12:40:54.305Z,30.92
2022-12-01T12:46:09.188Z,29.47
2022-12-01T12:51:19.235Z,27.98
2022-12-01T12:56:25.525Z,28.58
2022-12-01T13:01:34.749Z,28.10
2022-12-01T13:06:41.689Z,30.10
2022-12-01T13:11:48.579Z,28.42
2022-12-01T13:16:56.489Z,29.52
2022-12-01T13:22:00.983Z,30.55
2022-12-01T13:27:07.725Z,28.60
2022-12-01T13:32:28.705Z,27.25
2022-12-01T13:37:33.861Z,26.58
2022-12-01T13:42:37.509Z,26.05
2022-12-01T13:47:51.739Z,28.95
2022-12-01T13:53:12.040Z,27.90
2022-12-01T13:58:44.024Z,26.08
2022-12-01T14:03:56.937Z,29.90
2022-12-01T14:09:02.509Z,27.70
2022-12-01T14:14:26.424Z,29.17
2022-12-01T14:19:36.888Z,27.02
2022-12-01T14:24:43.449Z,27.10
2022-12-01T14:29:46.255Z,24.60
2022-12-01T14:34:56.984Z,26.25
2022-12-01T14:40:06.675Z,26.15
2022-12-01T14:45:14.539Z,26.77
2022-12-01T14:50:24.993Z,27.80
2022-12-01T14:55:32.383Z,27.92
2022-12-01T15:00:37.601Z,27.13
2022-12-01T15:05:44.445Z,28.67
2022-12-01T15:10:52.492Z,28.17
2022-12-01T15:15:57.302Z,28.98
2022-12-01T15:21:06.853Z,29.52
2022-12-01T15:26:19.860Z,30.40
2022-12-01T15:31:22.807Z,31.52
2022-12-01T15:36:27.179Z,31.75
2022-12-01T15:41:30.920Z,33.35
2022-12-01T15:46:35.247Z,34.58
2022-12-01T15:51:39.636Z,36.38
2022-12-01T15:56:42.790Z,38.33
2022-12-01T16:01:46.117Z,36.15
2022-12-01T16:06:58.023Z,37.78
2022-12-01T16:12:06.203Z,36.00
2022-12-01T16:17:11.071Z,36.35
2022-12-01T16:22:18.415Z,35.35
2022-12-01T16:27:24.988Z,36.30
2022-12-01T16:32:33.400Z,36.13
2022-12-01T16:37:37.619Z,35.08
2022-12-01T16:42:40.714Z,35.38
2022-12-01T16:47:44.486Z,35.30
2022-12-01T16:52:48.640Z,35.00
2022-12-01T16:57:51.438Z,34.10
2022-12-01T17:02:54.389Z,33.85
2022-12-01T17:07:58.688Z,34.45
2022-12-01T17:13:01.542Z,35.03
2022-12-01T17:18:04.462Z,36.50
2022-12-01T17:23:08.732Z,33.63
2022-12-01T17:28:11.529Z,33.20
2022-12-01T17:33:14.595Z,33.20
2022-12-01T17:38:19.528Z,36.80
2022-12-01T17:43:23.437Z,37.35
2022-12-01T17:48:27.205Z,37.10
2022-12-01T17:53:33.094Z,35.92
2022-12-01T17:58:36.812Z,38.60
2022-12-01T18:03:39.604Z,36.28
2022-12-01T18:08:44.014Z,39.97
2022-12-01T18:13:48.896Z,37.38
2022-12-01T18:18:52.205Z,36.65
2022-12-01T18:23:58.075Z,36.08
2022-12-01T18:29:04.837Z,38.88
2022-12-01T18:34:09.021Z,35.88
2022-12-01T18:39:13.259Z,44.05
2022-12-01T18:44:16.094Z,41.10
2022-12-01T18:49:19.086Z,38.45
2022-12-01T18:54:23.255Z,39.67
2022-12-01T18:59:26.874Z,39.97
2022-12-01T19:04:29.768Z,40.05
2022-12-01T19:09:34.159Z,40.67
2022-12-01T19:14:37.119Z,39.88
2022-12-01T19:19:40.016Z,39.08
2022-12-01T19:24:49.909Z,40.17
2022-12-01T19:29:53.919Z,39.00
2022-12-01T19:34:56.981Z,38.97
2022-12-01T19:40:01.067Z,41.15
2022-12-01T19:45:04.517Z,36.10
2022-12-01T19:50:08.592Z,39.05
2022-12-01T19:55:12.773Z,37.25
2022-12-01T20:00:16.227Z,38.55
2022-12-01T20:05:19.306Z,37.92
2022-12-01T20:10:23.502Z,36.90
2022-12-01T20:15:26.322Z,35.28
2022-12-01T20:20:29.155Z,36.75
2022-12-01T20:25:34.187Z,39.35
2022-12-01T20:30:40.928Z,36.97
2022-12-01T20:35:43.752Z,38.03
2022-12-01T20:40:51.035Z,36.60
2022-12-01T20:45:53.931Z,37.75
2022-12-01T20:50:56.862Z,36.75
2022-12-01T20:56:04.522Z,38.60
2022-12-01T21:01:09.514Z,35.58
2022-12-01T21:06:14.096Z,38.92
2022-12-01T21:11:42.353Z,40.88
2022-12-01T21:16:49.146Z,38.65
2022-12-01T21:21:52.147Z,40.60
2022-12-01T21:27:00.339Z,43.13
2022-12-01T21:32:12.428Z,42.05
2022-12-01T21:37:26.319Z,41.42
2022-12-01T21:42:32.823Z,39.45
2022-12-01T21:47:35.851Z,39.08
2022-12-01T21:52:41.430Z,40.40
2022-12-01T21:57:48.111Z,37.35
2022-12-01T22:02:53.225Z,39.60
2022-12-01T22:08:01.716Z,37.30
2022-12-01T22:13:10.739Z,38.30
2022-12-01T22:18:22.658Z,37.70
2022-12-01T22:23:32.800Z,30.48
2022-12-01T22:28:37.164Z,39.00
2022-12-01T22:33:39.896Z,38.83
2022-12-01T22:38:42.652Z,37.90
2022-12-01T22:43:49.349Z,41.95
2022-12-01T22:48:53.756Z,36.03
2022-12-01T22:54:01.003Z,38.28
2022-12-01T22:59:14.091Z,35.58
2022-12-01T23:04:27.683Z,35.28
2022-12-01T23:09:36.520Z,35.25
2022-12-01T23:14:44.289Z,36.00
2022-12-01T23:19:47.326Z,36.47
2022-12-01T23:24:50.429Z,34.03
2022-12-01T23:29:55.171Z,36.20
2022-12-01T23:35:00.326Z,35.58
2022-12-01T23:40:15.864Z,34.47
2022-12-01T23:45:23.655Z,35.33
2022-12-01T23:50:27.720Z,34.45
2022-12-01T23:55:31.951Z,36.70
